Time;durP1;ratioP1;P1;durP2;ratioP2;P2;SDS_P1;SDS_P2;PMS_P1;PMS_P2;Temp;Humidity;BMP_temperature;BMP_pressure;BME280_temperature;BME280_humidity;BME280_pressure;Samples;Min_cycle;Max_cycle;Signal;HPM_P1;HPM_P2
2021/04/04 00:00:38;;;;;;;0.70;0.50;;;21.70;49.00;;;;;;5049119;28;20504;-83
2021/04/04 00:03:05;;;;;;;0.70;0.50;;;22.00;49.60;;;;;;5049204;28;20176;-83
2021/04/04 00:05:31;;;;;;;0.80;0.60;;;21.80;48.90;;;;;;5031659;28;20175;-83
2021/04/04 00:07:56;;;;;;;0.80;0.60;;;21.70;49.00;;;;;;5049474;28;20446;-83
2021/04/04 00:10:22;;;;;;;0.77;0.53;;;21.70;49.60;;;;;;5035551;28;20661;-83
2021/04/04 00:12:48;;;;;;;0.80;0.60;;;21.70;49.20;;;;;;5052759;28;20172;-83
2021/04/04 00:15:15;;;;;;;0.80;0.60;;;21.70;49.60;;;;;;5053202;28;20410;-83
2021/04/04 00:17:41;;;;;;;0.80;0.60;;;21.70;48.90;;;;;;5034625;28;20414;-83
2021/04/04 00:20:15;;;;;;;0.80;0.60;;;21.70;48.70;;;;;;5052017;28;20536;-83
2021/04/04 00:22:41;;;;;;;1.07;0.80;;;21.70;48.90;;;;;;5053049;28;20391;-83
2021/04/04 00:25:10;;;;;;;1.10;0.60;;;21.70;48.70;;;;;;5052691;28;20409;-83
2021/04/04 00:27:36;;;;;;;0.80;0.60;;;21.70;49.00;;;;;;5034775;28;20438;-83
2021/04/04 00:30:06;;;;;;;0.77;0.57;;;21.70;49.20;;;;;;5052927;28;20417;-83
2021/04/04 00:32:32;;;;;;;0.80;0.60;;;21.70;48.90;;;;;;5035327;28;20235;-83
2021/04/04 00:34:57;;;;;;;0.97;0.70;;;21.70;50.00;;;;;;5051500;28;20415;-82
2021/04/04 00:37:23;;;;;;;0.90;0.60;;;21.70;49.60;;;;;;5034765;28;20194;-83
2021/04/04 00:39:49;;;;;;;0.93;0.70;;;21.70;49.40;;;;;;5035020;28;20320;-83
2021/04/04 00:42:16;;;;;;;0.80;0.60;;;21.70;49.20;;;;;;5052119;28;20199;-83
2021/04/04 00:44:42;;;;;;;0.90;0.70;;;21.70;48.90;;;;;;5052857;28;20174;-83
2021/04/04 00:47:08;;;;;;;0.80;0.60;;;21.70;49.30;;;;;;5052070;28;20410;-82
2021/04/04 00:49:33;;;;;;;0.80;0.60;;;21.60;49.30;;;;;;5034907;28;20180;-83
2021/04/04 00:51:59;;;;;;;0.90;0.70;;;21.70;49.40;;;;;;5051936;28;20175;-83
2021/04/04 00:54:25;;;;;;;1.00;0.60;;;21.60;49.60;;;;;;5051212;28;20203;-83
2021/04/04 00:56:51;;;;;;;0.80;0.60;;;21.60;49.30;;;;;;5052691;28;20547;-83
2021/04/04 00:59:18;;;;;;;0.80;0.60;;;21.70;50.40;;;;;;5050825;28;20787;-82
2021/04/04 01:01:44;;;;;;;0.83;0.60;;;21.70;48.80;;;;;;5051123;28;20227;-83
2021/04/04 01:04:10;;;;;;;0.90;0.60;;;21.60;49.40;;;;;;5051631;28;20413;-83
2021/04/04 01:06:36;;;;;;;0.80;0.70;;;21.60;48.80;;;;;;5051458;28;20172;-83
2021/04/04 01:09:02;;;;;;;1.00;0.60;;;21.60;49.70;;;;;;5050867;28;20175;-83
2021/04/04 01:11:54;;;;;;;1.00;0.60;;;21.60;49.40;;;;;;5033537;28;20998;-83
2021/04/04 01:14:26;;;;;;;0.73;0.53;;;21.70;48.80;;;;;;4984729;28;20207;-83
2021/04/04 01:16:58;;;;;;;0.80;0.60;;;21.60;48.80;;;;;;5051641;28;20548;-83
2021/04/04 01:20:01;;;;;;;0.90;0.60;;;21.60;49.20;;;;;;5051670;28;20402;-83
2021/04/04 01:22:55;;;;;;;1.10;0.60;;;21.60;48.60;;;;;;5052095;28;20401;-83
2021/04/04 01:25:46;;;;;;;0.80;0.60;;;21.60;48.70;;;;;;5052219;28;20407;-83
2021/04/04 01:28:16;;;;;;;0.80;0.60;;;21.60;48.80;;;;;;5052542;28;20393;-83
2021/04/04 01:30:45;;;;;;;0.90;0.70;;;21.60;48.90;;;;;;5034596;28;20428;-83
2021/04/04 01:33:14;;;;;;;1.07;0.80;;;21.60;49.10;;;;;;5051474;28;20403;-83
2021/04/04 01:35:49;;;;;;;0.90;0.60;;;21.60;48.80;;;;;;5051620;28;20413;-83
2021/04/04 01:38:18;;;;;;;0.80;0.60;;;21.60;48.70;;;;;;5072021;28;20468;-83
2021/04/04 01:40:48;;;;;;;0.80;0.60;;;21.50;48.80;;;;;;5070821;28;20456;-82
2021/04/04 01:43:15;;;;;;;0.80;0.60;;;21.60;49.40;;;;;;5070876;28;20428;-82
2021/04/04 01:45:46;;;;;;;0.80;0.60;;;21.60;48.80;;;;;;5053031;28;20413;-83
2021/04/04 01:48:13;;;;;;;0.90;0.60;;;21.60;48.80;;;;;;5053725;28;20406;-82
2021/04/04 01:50:42;;;;;;;0.90;0.60;;;21.60;49.00;;;;;;5037860;28;20446;-83
2021/04/04 01:53:10;;;;;;;0.80;0.60;;;21.60;48.80;;;;;;5070295;28;20489;-83
2021/04/04 01:55:38;;;;;;;0.80;0.70;;;21.60;49.70;;;;;;5020148;28;20418;-83
2021/04/04 01:58:06;;;;;;;1.47;0.70;;;21.60;48.90;;;;;;5072590;28;20428;-83
2021/04/04 02:00:32;;;;;;;1.00;0.70;;;21.30;48.60;;;;;;5063443;28;20478;-83
2021/04/04 02:02:59;;;;;;;0.90;0.63;;;21.60;49.70;;;;;;5051135;28;20449;-84
2021/04/04 02:05:29;;;;;;;0.80;0.60;;;21.60;49.00;;;;;;5053239;28;20410;-83
2021/04/04 02:07:59;;;;;;;0.80;0.60;;;21.60;49.80;;;;;;5051782;28;20398;-83
2021/04/04 02:10:30;;;;;;;0.90;0.60;;;21.60;49.00;;;;;;5044038;28;20430;-83
2021/04/04 02:13:00;;;;;;;1.10;1.00;;;21.60;48.80;;;;;;5053138;28;20415;-83
2021/04/04 02:15:28;;;;;;;0.90;0.60;;;21.60;49.00;;;;;;5051359;28;20411;-83
2021/04/04 02:17:55;;;;;;;0.90;0.70;;;21.60;48.90;;;;;;5033382;28;20423;-83
2021/04/04 02:20:25;;;;;;;0.80;0.60;;;21.60;49.70;;;;;;5034215;28;20484;-82
2021/04/04 02:22:52;;;;;;;1.00;0.70;;;21.60;48.90;;;;;;5049536;28;20410;-82
2021/04/04 02:25:19;;;;;;;0.90;0.60;;;21.60;48.80;;;;;;5033108;28;20411;-83
2021/04/04 02:27:46;;;;;;;0.80;0.60;;;21.60;49.70;;;;;;5033063;28;20913;-82
2021/04/04 02:30:16;;;;;;;0.90;0.60;;;21.60;49.20;;;;;;5017186;28;20426;-84
2021/04/04 02:32:55;;;;;;;0.90;0.70;;;21.60;49.10;;;;;;5032064;28;20430;-83
2021/04/04 02:35:37;;;;;;;1.00;0.70;;;21.60;49.00;;;;;;5032630;28;20509;-83
2021/04/04 02:38:14;;;;;;;0.77;0.50;;;21.60;49.10;;;;;;5032585;28;20849;-83
2021/04/04 02:40:42;;;;;;;0.80;0.60;;;21.60;49.10;;;;;;5050400;28;20469;-83
2021/04/04 02:43:12;;;;;;;0.90;0.60;;;21.50;48.90;;;;;;5050075;28;20406;-83
2021/04/04 02:45:38;;;;;;;0.80;0.53;;;21.50;49.10;;;;;;5032740;28;20429;-83
2021/04/04 02:48:08;;;;;;;0.70;0.50;;;21.50;49.00;;;;;;5032077;28;20422;-83
2021/04/04 02:50:36;;;;;;;0.80;0.53;;;21.50;49.30;;;;;;5050459;28;20426;-83
2021/04/04 02:53:06;;;;;;;0.90;0.60;;;21.50;49.10;;;;;;5032559;28;20449;-83
2021/04/04 02:55:37;;;;;;;0.80;0.60;;;21.50;48.70;;;;;;5032939;28;20414;-83
2021/04/04 02:58:09;;;;;;;0.90;0.60;;;21.60;49.10;;;;;;5049790;28;20446;-83
2021/04/04 03:00:39;;;;;;;0.93;0.63;;;21.50;48.70;;;;;;5048495;28;20473;-83
2021/04/04 03:03:07;;;;;;;0.80;0.60;;;21.50;49.00;;;;;;5015236;28;20418;-82
2021/04/04 03:05:34;;;;;;;0.90;0.60;;;21.50;48.90;;;;;;5049402;28;20402;-83
2021/04/04 03:08:06;;;;;;;0.80;0.50;;;21.50;49.20;;;;;;5049955;28;20497;-83
2021/04/04 03:10:34;;;;;;;0.90;0.70;;;21.50;49.20;;;;;;5032775;28;20521;-83
2021/04/04 03:13:00;;;;;;;0.80;0.60;;;21.50;49.20;;;;;;5032261;28;20429;-83
2021/04/04 03:15:27;;;;;;;0.80;0.60;;;21.50;49.50;;;;;;5031857;28;20422;-83
2021/04/04 03:17:56;;;;;;;0.80;0.60;;;21.50;49.00;;;;;;5049332;28;20415;-83
2021/04/04 03:20:22;;;;;;;0.87;0.60;;;21.50;49.00;;;;;;5031549;28;20492;-83
2021/04/04 03:22:49;;;;;;;0.80;0.60;;;21.50;49.10;;;;;;5032363;28;20423;-83
2021/04/04 03:25:17;;;;;;;0.90;0.60;;;21.50;48.90;;;;;;5015647;28;20427;-83
2021/04/04 03:27:45;;;;;;;0.80;0.60;;;21.50;48.90;;;;;;5048551;28;20410;-83
2021/04/04 03:30:35;;;;;;;0.90;0.60;;;21.50;49.00;;;;;;5031858;28;20507;-83
2021/04/04 03:33:01;;;;;;;1.00;0.63;;;21.50;49.30;;;;;;5049929;28;20426;-83
2021/04/04 03:35:30;;;;;;;1.00;0.70;;;21.50;49.10;;;;;;5049537;28;20490;-82
2021/04/04 03:37:58;;;;;;;0.90;0.57;;;21.50;48.80;;;;;;5032592;28;20418;-84
2021/04/04 03:40:25;;;;;;;0.80;0.60;;;21.50;48.90;;;;;;5031715;28;20489;-82
2021/04/04 03:42:52;;;;;;;0.90;0.70;;;21.50;49.00;;;;;;5031847;28;20545;-82
2021/04/04 03:45:18;;;;;;;0.80;0.50;;;21.50;49.30;;;;;;5048938;28;20419;-83
2021/04/04 03:47:45;;;;;;;0.80;0.70;;;21.50;49.30;;;;;;5031690;28;20421;-83
2021/04/04 03:50:12;;;;;;;0.90;0.60;;;21.50;49.20;;;;;;5049704;28;20414;-83
2021/04/04 03:52:39;;;;;;;0.80;0.60;;;21.50;49.10;;;;;;5049449;28;20414;-83
2021/04/04 03:55:08;;;;;;;0.90;0.70;;;21.50;49.10;;;;;;5031098;28;20410;-83
2021/04/04 03:57:36;;;;;;;0.80;0.60;;;21.40;49.00;;;;;;5030665;28;20448;-83
2021/04/04 04:00:07;;;;;;;1.00;0.67;;;21.40;49.80;;;;;;5031165;28;20449;-83
2021/04/04 04:02:35;;;;;;;0.80;0.60;;;21.40;49.10;;;;;;5048700;28;20409;-83
2021/04/04 04:05:03;;;;;;;0.90;0.60;;;21.60;49.50;;;;;;5048016;28;20406;-83
2021/04/04 04:07:31;;;;;;;0.80;0.60;;;21.40;49.40;;;;;;5047843;28;20433;-83
2021/04/04 04:10:02;;;;;;;0.97;0.63;;;21.40;49.10;;;;;;5030774;28;20418;-83
2021/04/04 04:12:29;;;;;;;0.90;0.60;;;21.40;49.20;;;;;;5032399;28;20418;-83
2021/04/04 04:14:57;;;;;;;0.90;0.80;;;21.40;49.00;;;;;;5031391;28;20411;-83
2021/04/04 04:17:25;;;;;;;0.80;0.60;;;21.40;49.20;;;;;;5031025;28;20419;-83
2021/04/04 04:19:51;;;;;;;0.80;0.60;;;21.40;49.20;;;;;;5048204;28;20414;-83
2021/04/04 04:22:18;;;;;;;1.10;0.70;;;21.40;49.20;;;;;;5049078;28;20403;-84
2021/04/04 04:24:48;;;;;;;0.80;0.57;;;21.40;49.20;;;;;;5049230;28;20433;-84
2021/04/04 04:27:14;;;;;;;0.80;0.60;;;21.40;49.20;;;;;;5031454;28;20501;-82
2021/04/04 04:29:40;;;;;;;0.80;0.60;;;21.40;49.20;;;;;;5031308;28;20429;-83
2021/04/04 04:32:07;;;;;;;0.90;0.63;;;21.40;50.00;;;;;;5048984;28;20410;-82
2021/04/04 04:34:34;;;;;;;0.90;0.60;;;21.40;49.20;;;;;;5029908;28;20533;-83
2021/04/04 04:37:00;;;;;;;0.80;0.60;;;21.40;49.00;;;;;;5048776;28;20406;-82
2021/04/04 04:39:26;;;;;;;0.80;0.60;;;21.40;49.00;;;;;;5030853;28;20442;-83
2021/04/04 04:41:53;;;;;;;0.90;0.60;;;21.40;49.00;;;;;;5047209;28;20454;-82
2021/04/04 04:44:22;;;;;;;1.27;0.80;;;21.50;50.00;;;;;;5050817;28;20411;-82
2021/04/04 04:46:50;;;;;;;1.00;0.70;;;21.50;49.20;;;;;;5048685;28;20406;-83
2021/04/04 04:49:17;;;;;;;0.80;0.60;;;21.50;49.00;;;;;;5032564;28;20411;-83
2021/04/04 04:51:49;;;;;;;0.90;0.60;;;21.50;49.10;;;;;;5033174;28;20422;-83
2021/04/04 04:54:19;;;;;;;1.00;0.70;;;21.50;48.90;;;;;;5014752;28;20511;-83
2021/04/04 04:56:47;;;;;;;0.80;0.60;;;21.50;48.60;;;;;;5036066;28;20444;-83
2021/04/04 04:59:14;;;;;;;1.33;0.60;;;21.60;49.30;;;;;;5020019;28;20795;-83
2021/04/04 05:01:48;;;;;;;0.90;0.60;;;21.60;48.80;;;;;;5035215;28;20469;-83
2021/04/04 05:04:14;;;;;;;0.87;0.60;;;21.60;48.70;;;;;;5034906;28;20413;-83
2021/04/04 05:06:48;;;;;;;0.80;0.60;;;21.60;49.30;;;;;;5050941;28;20755;-83
2021/04/04 05:09:24;;;;;;;1.00;0.70;;;21.60;48.50;;;;;;5052479;28;20383;-83
2021/04/04 05:11:50;;;;;;;0.80;0.60;;;21.60;48.80;;;;;;5034183;28;20424;-83
2021/04/04 05:14:16;;;;;;;0.97;0.67;;;21.60;48.80;;;;;;5052405;28;20498;-83
2021/04/04 05:16:45;;;;;;;0.80;0.60;;;21.60;49.30;;;;;;5018480;28;20473;-82
2021/04/04 05:19:12;;;;;;;0.90;0.60;;;21.60;48.60;;;;;;5034009;28;20445;-83
2021/04/04 05:21:41;;;;;;;0.80;0.50;;;21.70;49.30;;;;;;5051725;28;20457;-83
2021/04/04 05:24:09;;;;;;;0.70;0.50;;;21.80;48.90;;;;;;5033809;28;20473;-82
2021/04/04 05:26:37;;;;;;;0.90;0.60;;;21.70;48.70;;;;;;5051288;28;20441;-82
2021/04/04 05:29:09;;;;;;;1.73;0.70;;;21.70;48.50;;;;;;5051542;28;20402;-83
2021/04/04 05:31:46;;;;;;;1.00;0.70;;;21.70;48.70;;;;;;5051663;28;20437;-83
2021/04/04 05:34:18;;;;;;;1.00;0.70;;;21.70;48.50;;;;;;5033571;28;20414;-83
2021/04/04 05:37:03;;;;;;;0.90;0.70;;;21.70;48.70;;;;;;5051392;28;20401;-83
2021/04/04 05:39:31;;;;;;;0.80;0.60;;;21.40;48.20;;;;;;5050859;28;20406;-83
2021/04/04 05:41:59;;;;;;;1.00;0.80;;;21.70;48.80;;;;;;5034030;28;20469;-83
2021/04/04 05:44:41;;;;;;;1.23;0.60;;;21.70;48.80;;;;;;5051678;28;20438;-82
2021/04/04 05:47:20;;;;;;;0.80;0.60;;;21.70;48.40;;;;;;5050484;28;20411;-82
2021/04/04 05:50:06;;;;;;;0.90;0.63;;;21.70;48.70;;;;;;5034369;28;20441;-83
2021/04/04 05:52:44;;;;;;;0.83;0.60;;;21.80;48.70;;;;;;5050878;28;20413;-83
2021/04/04 05:55:18;;;;;;;1.00;0.67;;;21.70;48.40;;;;;;5051301;28;20424;-82
2021/04/04 05:58:01;;;;;;;0.90;0.70;;;21.70;48.90;;;;;;5050301;28;20415;-82
2021/04/04 06:00:31;;;;;;;0.77;0.50;;;21.90;48.60;;;;;;5051232;28;20441;-83
2021/04/04 06:03:13;;;;;;;0.80;0.60;;;21.70;48.70;;;;;;5017158;28;20423;-83
2021/04/04 06:06:16;;;;;;;0.90;0.60;;;21.70;48.40;;;;;;5049586;28;20418;-82
2021/04/04 06:09:01;;;;;;;1.00;0.70;;;21.90;48.60;;;;;;5049900;28;20413;-83
2021/04/04 06:11:32;;;;;;;1.10;0.80;;;21.70;48.50;;;;;;5049738;28;20425;-83
2021/04/04 06:14:31;;;;;;;0.80;0.63;;;21.70;49.60;;;;;;5049301;28;20410;-83
2021/04/04 06:17:23;;;;;;;0.80;0.60;;;21.70;48.50;;;;;;5049987;28;20413;-83
2021/04/04 06:20:01;;;;;;;0.90;0.70;;;21.70;48.80;;;;;;5049891;28;20418;-82
2021/04/04 06:22:57;;;;;;;0.80;0.60;;;21.70;48.80;;;;;;5048429;28;20426;-83
2021/04/04 06:25:49;;;;;;;1.00;0.80;;;21.70;48.60;;;;;;5048869;28;20411;-83
2021/04/04 06:28:26;;;;;;;0.90;0.60;;;21.70;48.60;;;;;;5049136;28;20426;-82
2021/04/04 06:31:03;;;;;;;0.90;0.70;;;21.80;48.70;;;;;;5049542;28;20456;-83
2021/04/04 06:33:45;;;;;;;0.80;0.60;;;21.80;49.00;;;;;;5049938;28;20390;-82
2021/04/04 06:36:37;;;;;;;1.20;0.80;;;21.80;49.00;;;;;;5048682;28;20414;-83
2021/04/04 06:39:52;;;;;;;0.80;0.60;;;21.80;49.20;;;;;;5049735;28;20481;-83
2021/04/04 06:45:52;;;;;;;0.90;0.70;;;21.80;48.70;;;;;;4970017;28;20427;-83
2021/04/04 06:48:48;;;;;;;0.90;0.60;;;21.60;48.80;;;;;;4954757;29;20937;-83
2021/04/04 06:51:23;;;;;;;0.80;0.60;;;21.80;48.70;;;;;;4953832;29;20426;-83
2021/04/04 06:54:02;;;;;;;0.90;0.70;;;22.00;49.20;;;;;;4969276;29;20433;-83
2021/04/04 06:57:02;;;;;;;0.70;0.50;;;21.80;49.00;;;;;;4953936;29;20417;-83
2021/04/04 07:00:03;;;;;;;1.00;0.80;;;21.80;48.70;;;;;;4953621;29;20489;-83
2021/04/04 07:02:40;;;;;;;0.80;0.60;;;21.80;48.70;;;;;;4953177;29;20430;-83
2021/04/04 07:05:11;;;;;;;0.80;0.70;;;21.80;48.90;;;;;;4953286;29;20429;-83
2021/04/04 07:07:57;;;;;;;1.10;0.60;;;21.80;48.90;;;;;;4968994;29;20422;-83
2021/04/04 07:10:31;;;;;;;0.80;0.60;;;21.90;49.20;;;;;;4968765;29;20421;-83
2021/04/04 07:13:18;;;;;;;1.40;1.10;;;21.80;48.70;;;;;;4953139;29;20421;-82
2021/04/04 07:16:15;;;;;;;0.80;0.60;;;21.80;48.70;;;;;;4953250;29;20453;-83
2021/04/04 07:18:44;;;;;;;0.80;0.60;;;21.70;48.60;;;;;;5001795;28;20421;-83
2021/04/04 07:21:09;;;;;;;0.90;0.67;;;21.80;49.30;;;;;;5049367;28;20468;-84
2021/04/04 07:24:00;;;;;;;0.70;0.50;;;21.80;49.80;;;;;;5049287;28;20434;-83
2021/04/04 07:26:42;;;;;;;0.80;0.60;;;21.80;48.70;;;;;;5047160;28;20458;-83
2021/04/04 07:29:24;;;;;;;0.80;0.60;;;21.80;48.70;;;;;;5017517;28;20553;-81
2021/04/04 07:31:59;;;;;;;0.83;0.70;;;21.90;49.00;;;;;;5031633;28;20423;-82
2021/04/04 07:34:40;;;;;;;0.90;0.70;;;21.80;49.00;;;;;;5048733;28;20458;-82
2021/04/04 07:37:34;;;;;;;0.80;0.60;;;21.80;48.80;;;;;;5049196;28;20397;-83
2021/04/04 07:40:20;;;;;;;1.00;0.60;;;21.80;48.80;;;;;;5049794;28;20411;-83
2021/04/04 07:42:50;;;;;;;1.50;0.70;;;21.80;48.80;;;;;;5050059;28;20389;-82
2021/04/04 07:45:46;;;;;;;1.03;0.70;;;21.90;49.70;;;;;;5047828;28;20398;-82
2021/04/04 07:48:36;;;;;;;1.00;0.60;;;21.80;48.80;;;;;;5048555;28;20455;-83
2021/04/04 07:51:09;;;;;;;0.90;0.60;;;21.80;48.80;;;;;;5049695;28;20880;-83
2021/04/04 07:54:27;;;;;;;1.10;0.60;;;21.80;49.00;;;;;;5049220;28;20426;-84
2021/04/04 07:57:10;;;;;;;0.90;0.70;;;22.00;49.20;;;;;;5007624;28;20422;-83
2021/04/04 07:59:46;;;;;;;0.80;0.60;;;22.40;49.60;;;;;;5049899;28;20425;-83
2021/04/04 08:02:19;;;;;;;0.80;0.50;;;21.80;49.10;;;;;;5048309;28;20453;-83
2021/04/04 08:04:53;;;;;;;0.80;0.60;;;21.90;49.10;;;;;;5047654;28;20403;-82
2021/04/04 08:07:20;;;;;;;1.27;0.60;;;21.80;49.20;;;;;;5031434;28;20409;-84
2021/04/04 08:10:09;;;;;;;0.90;0.60;;;21.80;49.20;;;;;;5049424;28;20920;-82
2021/04/04 08:13:08;;;;;;;0.90;0.60;;;21.90;49.40;;;;;;5050295;28;20406;-83
2021/04/04 08:15:46;;;;;;;0.90;0.60;;;21.90;48.90;;;;;;5048975;28;20458;-83
2021/04/04 08:18:12;;;;;;;0.73;0.57;;;21.80;48.90;;;;;;5049794;28;20387;-84
2021/04/04 08:20:50;;;;;;;1.10;0.70;;;21.90;49.60;;;;;;5049451;28;20461;-83
2021/04/04 08:23:29;;;;;;;1.10;0.60;;;21.90;49.20;;;;;;5049307;28;20171;-82
2021/04/04 08:26:23;;;;;;;0.83;0.63;;;21.90;49.30;;;;;;5049833;28;20395;-82
2021/04/04 08:28:59;;;;;;;0.90;0.60;;;22.10;49.00;;;;;;5024262;28;20445;-82
2021/04/04 08:31:31;;;;;;;1.20;0.70;;;21.90;48.90;;;;;;5052374;28;20441;-82
2021/04/04 08:34:07;;;;;;;0.80;0.60;;;21.90;49.00;;;;;;5053212;28;20417;-83
2021/04/04 08:36:41;;;;;;;0.80;0.60;;;21.90;49.00;;;;;;5052250;28;20406;-83
2021/04/04 08:39:09;;;;;;;1.30;0.60;;;21.90;49.20;;;;;;5052860;28;20402;-84
2021/04/04 08:41:37;;;;;;;0.90;0.70;;;21.90;49.10;;;;;;5052477;28;20488;-83
2021/04/04 08:44:16;;;;;;;0.90;0.60;;;21.90;49.10;;;;;;5035518;28;20618;-83
2021/04/04 08:46:58;;;;;;;0.80;0.60;;;21.80;48.90;;;;;;5052652;28;20402;-83
2021/04/04 08:49:27;;;;;;;0.80;0.60;;;21.90;48.90;;;;;;5053157;28;20399;-83
2021/04/04 08:52:03;;;;;;;1.03;0.63;;;21.90;49.40;;;;;;5052763;28;20414;-83
2021/04/04 08:54:32;;;;;;;0.97;0.70;;;21.90;48.90;;;;;;5035114;28;20438;-83
2021/04/04 08:56:58;;;;;;;0.90;0.60;;;21.90;49.30;;;;;;5052867;28;20411;-83
2021/04/04 08:59:32;;;;;;;0.90;0.70;;;21.90;49.50;;;;;;5033944;28;20506;-83
2021/04/04 09:02:07;;;;;;;0.80;0.60;;;21.90;49.00;;;;;;5051231;28;20449;-84
2021/04/04 09:04:34;;;;;;;0.90;0.60;;;21.90;50.00;;;;;;5051993;28;20744;-83
2021/04/04 09:07:04;;;;;;;1.00;0.80;;;21.90;49.00;;;;;;5051892;28;20418;-84
2021/04/04 09:09:45;;;;;;;0.80;0.50;;;21.90;49.00;;;;;;5050087;28;20449;-83
2021/04/04 09:12:12;;;;;;;1.00;0.60;;;21.90;48.90;;;;;;5052471;28;20415;-83
2021/04/04 09:14:41;;;;;;;0.80;0.60;;;21.90;49.10;;;;;;5052059;28;20442;-83
2021/04/04 09:17:12;;;;;;;1.47;0.80;;;21.90;49.30;;;;;;5051397;28;20496;-83
2021/04/04 09:19:41;;;;;;;1.30;0.80;;;21.90;49.30;;;;;;5052143;28;20414;-83
2021/04/04 09:22:27;;;;;;;0.90;0.70;;;21.90;49.50;;;;;;5051661;28;20480;-83
2021/04/04 09:24:54;;;;;;;1.20;0.80;;;21.90;49.60;;;;;;5033823;28;20422;-83
2021/04/04 09:27:23;;;;;;;0.80;0.60;;;21.90;49.80;;;;;;5050358;28;20418;-82
2021/04/04 09:29:51;;;;;;;1.40;0.70;;;21.90;49.10;;;;;;5052529;28;20509;-83
2021/04/04 09:32:36;;;;;;;0.90;0.70;;;21.90;49.10;;;;;;5051647;28;20411;-83
2021/04/04 09:35:05;;;;;;;1.30;0.70;;;21.90;49.00;;;;;;5050589;28;20429;-83
2021/04/04 09:37:31;;;;;;;0.90;0.60;;;21.90;49.40;;;;;;5051284;28;20548;-83
2021/04/04 09:39:58;;;;;;;0.77;0.60;;;21.90;49.30;;;;;;5033562;28;20414;-83
2021/04/04 09:42:30;;;;;;;0.90;0.63;;;21.90;49.40;;;;;;5033577;28;20422;-83
2021/04/04 09:45:14;;;;;;;0.90;0.70;;;21.90;49.00;;;;;;5034065;28;20415;-83
2021/04/04 09:47:40;;;;;;;1.00;0.70;;;21.90;49.00;;;;;;5034534;28;20410;-83
2021/04/04 09:50:30;;;;;;;1.00;0.73;;;21.90;50.10;;;;;;5033568;28;20462;-83
2021/04/04 09:52:59;;;;;;;0.90;0.70;;;21.90;49.70;;;;;;5051302;28;20184;-83
2021/04/04 09:55:26;;;;;;;0.90;0.60;;;21.90;49.30;;;;;;5033751;28;20494;-82
2021/04/04 09:57:55;;;;;;;1.00;0.70;;;21.90;49.40;;;;;;5034269;28;20430;-83
2021/04/04 10:00:35;;;;;;;1.17;0.60;;;21.90;49.10;;;;;;5033406;28;20454;-82
2021/04/04 10:03:18;;;;;;;0.93;0.70;;;21.90;48.90;;;;;;5049586;28;20441;-81
2021/04/04 10:05:48;;;;;;;0.90;0.70;;;21.90;49.10;;;;;;5051875;28;20414;-82
2021/04/04 10:08:16;;;;;;;0.90;0.73;;;21.90;49.30;;;;;;5052254;28;20473;-83
2021/04/04 10:10:50;;;;;;;0.80;0.60;;;21.90;49.20;;;;;;5034133;28;20450;-83
2021/04/04 10:13:18;;;;;;;0.80;0.70;;;21.90;48.80;;;;;;5035718;28;20453;-82
2021/04/04 10:15:46;;;;;;;0.90;0.70;;;22.20;49.40;;;;;;5051318;28;20434;-83
2021/04/04 10:18:15;;;;;;;0.80;0.60;;;21.90;48.90;;;;;;5035522;28;20422;-83
2021/04/04 10:20:50;;;;;;;0.90;0.63;;;21.70;49.20;;;;;;5051972;28;20454;-83
2021/04/04 10:23:18;;;;;;;0.93;0.63;;;21.90;48.80;;;;;;5032847;28;20418;-83
2021/04/04 10:25:57;;;;;;;1.00;0.60;;;21.90;49.00;;;;;;5050069;28;20441;-83
2021/04/04 10:28:23;;;;;;;0.90;0.70;;;21.80;50.00;;;;;;5050411;28;20386;-84
2021/04/04 10:30:56;;;;;;;1.00;0.60;;;21.80;49.50;;;;;;5048772;28;20445;-84
2021/04/04 10:33:27;;;;;;;0.80;0.60;;;21.90;48.90;;;;;;5050781;28;20235;-83
2021/04/04 10:35:54;;;;;;;0.90;0.70;;;21.90;49.10;;;;;;5049979;28;20943;-83
2021/04/04 10:38:23;;;;;;;1.50;1.17;;;22.00;49.30;;;;;;5048301;28;20422;-83
2021/04/04 10:40:58;;;;;;;1.00;0.70;;;22.20;49.40;;;;;;5049434;28;20517;-83
2021/04/04 10:43:33;;;;;;;1.00;0.73;;;21.90;49.10;;;;;;5049456;28;20771;-82
2021/04/04 10:46:03;;;;;;;0.90;0.70;;;21.30;48.70;;;;;;5032518;28;20426;-82
2021/04/04 10:48:34;;;;;;;0.90;0.60;;;21.90;49.20;;;;;;5031899;28;20509;-84
2021/04/04 10:51:03;;;;;;;1.03;0.70;;;21.90;49.30;;;;;;5049381;28;20765;-84
2021/04/04 10:53:29;;;;;;;1.30;0.70;;;21.90;49.20;;;;;;5049208;28;20437;-83
2021/04/04 10:55:55;;;;;;;0.90;0.70;;;21.90;49.60;;;;;;5033520;28;20425;-83
2021/04/04 10:58:25;;;;;;;1.10;0.60;;;21.90;49.00;;;;;;5050073;28;20414;-83
2021/04/04 11:00:51;;;;;;;0.90;0.70;;;21.90;49.10;;;;;;5032866;28;20465;-83
2021/04/04 11:03:20;;;;;;;1.00;0.80;;;21.90;49.00;;;;;;5032543;28;20427;-84
2021/04/04 11:05:47;;;;;;;0.90;0.70;;;21.90;49.20;;;;;;5050175;28;20410;-83
2021/04/04 11:08:13;;;;;;;0.83;0.60;;;21.90;49.10;;;;;;5032141;28;20418;-83
2021/04/04 11:10:43;;;;;;;0.90;0.70;;;21.60;48.80;;;;;;5048135;28;20423;-83
2021/04/04 11:13:17;;;;;;;1.00;0.70;;;21.90;48.80;;;;;;5049249;28;20414;-84
2021/04/04 11:15:50;;;;;;;1.00;0.70;;;22.00;49.20;;;;;;5049233;28;20468;-83
2021/04/04 11:18:30;;;;;;;0.87;0.67;;;22.00;49.40;;;;;;5031571;28;20457;-82
2021/04/04 11:21:05;;;;;;;0.93;0.70;;;21.90;49.20;;;;;;5049360;28;20464;-83
2021/04/04 11:23:32;;;;;;;0.90;0.60;;;21.90;49.40;;;;;;5032434;28;20751;-83
2021/04/04 11:25:57;;;;;;;0.90;0.70;;;21.90;49.20;;;;;;5049685;28;20493;-83
2021/04/04 11:28:24;;;;;;;0.90;0.60;;;21.90;49.40;;;;;;5049741;28;20387;-83
2021/04/04 11:30:57;;;;;;;0.97;0.70;;;21.90;48.90;;;;;;5015123;28;20172;-83
2021/04/04 11:33:28;;;;;;;1.23;0.80;;;21.50;49.00;;;;;;5048746;28;20411;-83
2021/04/04 11:36:04;;;;;;;0.80;0.60;;;21.90;49.10;;;;;;5032086;28;20481;-82
2021/04/04 11:38:51;;;;;;;0.87;0.60;;;21.90;48.80;;;;;;5049908;28;20485;-83
2021/04/04 11:41:25;;;;;;;1.13;0.70;;;21.90;48.80;;;;;;5049173;28;20521;-82
2021/04/04 11:43:55;;;;;;;1.00;0.73;;;21.90;49.20;;;;;;5048320;28;20482;-83
2021/04/04 11:46:46;;;;;;;0.90;0.63;;;21.90;49.00;;;;;;5049428;28;20461;-83
2021/04/04 11:49:30;;;;;;;1.00;0.70;;;21.90;48.90;;;;;;5048831;28;20406;-83
2021/04/04 11:52:00;;;;;;;0.90;0.60;;;21.90;49.70;;;;;;5047854;28;20489;-83
2021/04/04 11:54:44;;;;;;;1.10;0.70;;;21.90;49.50;;;;;;5049512;28;20516;-83
2021/04/04 11:57:11;;;;;;;0.80;0.60;;;21.90;49.70;;;;;;5048870;28;20406;-83
2021/04/04 11:59:37;;;;;;;0.90;0.60;;;21.90;49.50;;;;;;5048419;28;20403;-83
2021/04/04 12:02:04;;;;;;;0.90;0.60;;;21.90;49.70;;;;;;5031289;28;20544;-84
2021/04/04 12:04:34;;;;;;;0.90;0.60;;;21.90;49.30;;;;;;5036165;28;20175;-84
2021/04/04 12:07:04;;;;;;;1.00;0.70;;;22.00;49.20;;;;;;5055502;28;20832;-83
2021/04/04 12:09:31;;;;;;;1.00;0.70;;;22.00;49.50;;;;;;5055087;28;20889;-83
2021/04/04 12:11:57;;;;;;;0.90;0.70;;;22.00;49.10;;;;;;5053550;28;20414;-83
2021/04/04 12:14:23;;;;;;;1.00;0.77;;;21.90;49.00;;;;;;5055607;28;20410;-83
2021/04/04 12:16:50;;;;;;;0.90;0.60;;;21.90;49.90;;;;;;5056099;28;20402;-82
2021/04/04 12:19:29;;;;;;;0.80;0.70;;;21.90;49.00;;;;;;5055274;28;20231;-83
2021/04/04 12:21:58;;;;;;;0.80;0.60;;;22.00;49.30;;;;;;5054198;28;20461;-83
2021/04/04 12:24:45;;;;;;;0.80;0.60;;;21.90;49.30;;;;;;5054508;28;20489;-83
2021/04/04 12:27:14;;;;;;;0.90;0.70;;;22.00;49.10;;;;;;5055425;28;20398;-83
2021/04/04 12:29:46;;;;;;;1.20;0.70;;;21.90;49.00;;;;;;5055626;28;20412;-83
2021/04/04 12:32:23;;;;;;;0.70;0.50;;;21.80;48.80;;;;;;5037504;28;20415;-83
2021/04/04 12:34:52;;;;;;;0.80;0.70;;;22.00;49.00;;;;;;5037529;28;20418;-83
2021/04/04 12:37:20;;;;;;;0.80;0.70;;;21.90;49.40;;;;;;5036936;28;20414;-84
2021/04/04 12:39:46;;;;;;;0.80;0.60;;;21.90;49.20;;;;;;5037041;28;20424;-83
2021/04/04 12:42:14;;;;;;;1.10;0.80;;;21.90;50.00;;;;;;5054768;28;20461;-82
2021/04/04 12:44:45;;;;;;;0.83;0.60;;;21.90;49.30;;;;;;5055334;28;20189;-83
2021/04/04 12:47:13;;;;;;;1.63;0.70;;;21.90;48.90;;;;;;5054761;28;20422;-83
2021/04/04 12:49:41;;;;;;;0.80;0.60;;;21.90;49.00;;;;;;5039393;28;20406;-83
2021/04/04 12:52:08;;;;;;;1.00;0.60;;;21.90;49.00;;;;;;5054459;28;20413;-83
2021/04/04 12:54:34;;;;;;;0.93;0.67;;;21.90;49.10;;;;;;5056689;28;20445;-83
2021/04/04 12:57:01;;;;;;;0.90;0.60;;;21.90;49.10;;;;;;5039432;28;20917;-82
2021/04/04 12:59:29;;;;;;;0.80;0.70;;;21.70;48.90;;;;;;5055670;28;20453;-83
2021/04/04 13:01:55;;;;;;;1.00;0.70;;;21.90;49.60;;;;;;5038565;28;20457;-83
2021/04/04 13:04:22;;;;;;;1.00;0.80;;;21.90;49.60;;;;;;5055697;28;20778;-83
2021/04/04 13:06:49;;;;;;;1.00;0.70;;;21.90;48.90;;;;;;5055933;28;20163;-83
2021/04/04 13:09:16;;;;;;;1.00;0.73;;;21.90;49.00;;;;;;5038453;28;20485;-83
2021/04/04 13:11:44;;;;;;;1.03;0.80;;;22.00;48.90;;;;;;5038493;28;20414;-83
2021/04/04 13:14:15;;;;;;;1.00;0.70;;;21.90;48.90;;;;;;5038394;28;20422;-82
2021/04/04 13:16:42;;;;;;;1.00;0.73;;;21.90;49.10;;;;;;5035434;28;20413;-83
2021/04/04 13:19:13;;;;;;;0.90;0.70;;;22.00;49.50;;;;;;5051938;28;20510;-82